createdAt,value
2022-12-13T00:03:50.173Z,98436.69
2022-12-13T00:08:55.574Z,98436.28
2022-12-13T00:14:03.439Z,98439.00
2022-12-13T00:19:10.975Z,98432.25
2022-12-13T00:24:16.450Z,98427.06
2022-12-13T00:29:23.994Z,98419.44
2022-12-13T00:34:29.455Z,98420.88
2022-12-13T00:39:34.397Z,98414.53
2022-12-13T00:44:42.149Z,98408.66
2022-12-13T00:49:47.856Z,98408.59
2022-12-13T00:54:52.709Z,98411.69
2022-12-13T01:00:00.435Z,98417.09
2022-12-13T01:05:05.367Z,98407.91
2022-12-13T01:10:11.715Z,98413.72
2022-12-13T01:15:19.415Z,98414.31
2022-12-13T01:20:24.310Z,98407.75
2022-12-13T01:25:29.218Z,98418.50
2022-12-13T01:30:36.792Z,98420.75
2022-12-13T01:35:41.750Z,98408.72
2022-12-13T01:40:48.463Z,98406.19
2022-12-13T01:45:55.987Z,98397.53
2022-12-13T01:51:05.676Z,98402.84
2022-12-13T01:56:14.599Z,98403.16
2022-12-13T02:01:24.495Z,98408.53
2022-12-13T02:06:35.639Z,98411.69
2022-12-13T02:11:46.493Z,98402.19
2022-12-13T02:17:04.282Z,98406.13
2022-12-13T02:22:23.609Z,98404.88
2022-12-13T02:27:52.272Z,98403.94
2022-12-13T02:33:26.943Z,98406.44
2022-12-13T02:38:39.587Z,98400.22
2022-12-13T02:43:50.752Z,98406.25
2022-12-13T02:49:00.045Z,98397.81
2022-12-13T02:54:05.092Z,98397.03
2022-12-13T02:59:15.819Z,98398.59
2022-12-13T03:04:39.987Z,98388.34
2022-12-13T03:09:58.471Z,98388.63
2022-12-13T03:15:10.231Z,98391.34
2022-12-13T03:20:22.756Z,98393.41
2022-12-13T03:25:33.515Z,98389.41
2022-12-13T03:30:38.456Z,98389.06
2022-12-13T03:35:48.559Z,98387.63
2022-12-13T03:40:56.511Z,98391.66
2022-12-13T03:46:01.621Z,98378.97
2022-12-13T03:51:09.310Z,98384.66
2022-12-13T03:56:14.407Z,98372.19
2022-12-13T04:01:20.561Z,98366.31
2022-12-13T04:06:32.793Z,98371.63
2022-12-13T04:11:53.152Z,98375.78
2022-12-13T04:16:59.517Z,98373.44
2022-12-13T04:22:07.069Z,98379.41
2022-12-13T04:27:12.107Z,98381.16
2022-12-13T04:32:26.441Z,98380.13
2022-12-13T04:37:35.497Z,98375.75
2022-12-13T04:42:40.627Z,98373.34
2022-12-13T04:47:45.793Z,98371.19
2022-12-13T04:52:53.459Z,98364.84
2022-12-13T04:58:00.834Z,98379.25
2022-12-13T05:03:05.696Z,98377.63
2022-12-13T05:08:13.500Z,98380.38
2022-12-13T05:13:18.507Z,98377.31
2022-12-13T05:18:23.682Z,98381.47
2022-12-13T05:23:31.311Z,98385.69
2022-12-13T05:28:36.545Z,98375.38
2022-12-13T05:33:41.585Z,98395.09
2022-12-13T05:38:49.049Z,98392.13
2022-12-13T05:43:54.291Z,98396.69
2022-12-13T05:48:59.298Z,98396.69
2022-12-13T05:54:07.978Z,98396.47
2022-12-13T05:59:12.885Z,98383.78
2022-12-13T06:04:22.573Z,98399.72
2022-12-13T06:09:30.863Z,98389.97
2022-12-13T06:15:03.161Z,98402.38
2022-12-13T06:20:31.403Z,98404.94
2022-12-13T06:25:47.428Z,98406.09
2022-12-13T06:30:55.317Z,98401.69
2022-12-13T06:36:01.329Z,98406.88
2022-12-13T06:41:15.454Z,98405.66
2022-12-13T06:46:20.538Z,98405.31
2022-12-13T06:51:32.512Z,98406.91
2022-12-13T06:56:40.986Z,98413.31
2022-12-13T07:01:50.740Z,98419.13
2022-12-13T07:06:56.047Z,98419.28
2022-12-13T07:12:10.283Z,98418.88
2022-12-13T07:17:32.582Z,98427.50
2022-12-13T07:22:47.238Z,98430.81
2022-12-13T07:28:03.203Z,98426.50
2022-12-13T07:33:09.352Z,98435.31
2022-12-13T07:38:15.201Z,98434.97
2022-12-13T07:43:24.189Z,98442.22
2022-12-13T07:48:29.613Z,98447.00
2022-12-13T07:53:34.765Z,98450.56
2022-12-13T07:58:42.480Z,98453.38
2022-12-13T08:03:47.550Z,98456.94
2022-12-13T08:08:54.091Z,98463.56
2022-12-13T08:14:01.705Z,98457.22
2022-12-13T08:19:07.463Z,98452.97
2022-12-13T08:24:15.810Z,98441.19
2022-12-13T08:29:33.175Z,98441.09
2022-12-13T08:34:41.391Z,98434.53
2022-12-13T08:39:47.001Z,98433.63
2022-12-13T08:44:57.070Z,98440.50
2022-12-13T08:50:04.439Z,98451.19
2022-12-13T08:55:10.361Z,98449.97
2022-12-13T09:00:20.116Z,98444.91
2022-12-13T09:05:33.920Z,98442.53
2022-12-13T09:10:40.251Z,98439.88
2022-12-13T09:15:55.064Z,98441.97
2022-12-13T09:21:12.171Z,98443.03
2022-12-13T09:26:19.033Z,98441.94
2022-12-13T09:31:41.252Z,98442.53
2022-12-13T09:36:46.638Z,98439.97
2022-12-13T09:42:01.258Z,98453.06
2022-12-13T09:47:23.169Z,98453.97
2022-12-13T09:52:33.479Z,98443.13
2022-12-13T09:57:38.808Z,98436.34
2022-12-13T10:02:56.166Z,98436.97
2022-12-13T10:08:03.639Z,98430.28
2022-12-13T10:13:20.511Z,98427.75
2022-12-13T10:18:37.355Z,98430.56
2022-12-13T10:24:22.773Z,98422.97
2022-12-13T10:29:12.716Z,98429.22
2022-12-13T10:34:27.484Z,98424.59
2022-12-13T10:39:43.756Z,98412.91
2022-12-13T10:45:10.926Z,98411.44
2022-12-13T10:50:29.967Z,98409.59
2022-12-13T10:55:38.605Z,98399.97
2022-12-13T11:00:46.528Z,98401.09
2022-12-13T11:06:06.238Z,98391.59
2022-12-13T11:11:13.164Z,98394.63
2022-12-13T11:16:26.574Z,98387.84
2022-12-13T11:21:41.360Z,98382.56
2022-12-13T11:26:53.967Z,98388.44
2022-12-13T11:32:08.438Z,98387.31
2022-12-13T11:37:31.636Z,98374.00
2022-12-13T11:42:43.975Z,98374.72
2022-12-13T11:47:58.822Z,98374.03
2022-12-13T11:53:25.306Z,98368.16
2022-12-13T11:59:16.243Z,98375.06
2022-12-13T12:04:30.957Z,98371.56
2022-12-13T12:09:44.668Z,98371.84
2022-12-13T12:14:57.730Z,98372.22
2022-12-13T12:20:24.252Z,98374.09
2022-12-13T12:25:42.359Z,98374.00
2022-12-13T12:30:57.716Z,98374.91
2022-12-13T12:36:19.183Z,98375.38
2022-12-13T12:41:40.604Z,98367.63
2022-12-13T12:47:31.628Z,98367.75
2022-12-13T12:52:38.572Z,98368.75
2022-12-13T12:57:57.880Z,98365.31
2022-12-13T13:03:22.643Z,98367.38
2022-12-13T13:08:35.281Z,98354.03
2022-12-13T13:13:51.953Z,98359.78
2022-12-13T13:18:58.623Z,98361.63
2022-12-13T13:24:19.250Z,98364.72
2022-12-13T13:29:43.371Z,98374.09
2022-12-13T13:34:52.123Z,98376.13
2022-12-13T13:40:03.786Z,98361.31
2022-12-13T13:45:28.735Z,98359.13
2022-12-13T13:51:08.716Z,98372.66
2022-12-13T13:56:43.665Z,98370.22
2022-12-13T14:02:36.583Z,98372.09
2022-12-13T14:08:22.143Z,98371.47
2022-12-13T14:14:03.470Z,98367.84
2022-12-13T14:19:38.185Z,98383.28
2022-12-13T14:24:55.409Z,98382.63
2022-12-13T14:30:01.901Z,98383.06
2022-12-13T14:35:48.348Z,98375.38
2022-12-13T14:41:06.647Z,98379.13
2022-12-13T14:46:17.144Z,98374.16
2022-12-13T14:51:33.961Z,98384.25
2022-12-13T14:56:56.999Z,98379.47
2022-12-13T15:02:03.613Z,98382.06
2022-12-13T15:07:28.344Z,98381.34
2022-12-13T15:12:36.646Z,98371.22
2022-12-13T15:17:42.939Z,98363.19
2022-12-13T15:23:03.254Z,98375.66
2022-12-13T15:28:21.588Z,98366.59
2022-12-13T15:33:34.469Z,98372.00
2022-12-13T15:38:52.332Z,98374.78
2022-12-13T15:44:02.729Z,98369.75
2022-12-13T15:49:25.741Z,98359.69
2022-12-13T15:54:33.461Z,98382.13
2022-12-13T15:59:39.523Z,98369.13
2022-12-13T16:04:44.673Z,98362.56
2022-12-13T16:09:56.465Z,98364.19
2022-12-13T16:15:20.395Z,98361.41
2022-12-13T16:20:36.286Z,98380.53
2022-12-13T16:25:47.132Z,98374.88
2022-12-13T16:31:12.520Z,98376.22
2022-12-13T16:36:17.902Z,98379.97
2022-12-13T16:41:25.583Z,98374.44
2022-12-13T16:47:15.220Z,98366.34
2022-12-13T16:51:56.299Z,98370.03
2022-12-13T16:57:04.043Z,98360.75
2022-12-13T17:02:09.078Z,98369.88
2022-12-13T17:07:14.023Z,98356.78
2022-12-13T17:12:21.529Z,98342.56
2022-12-13T17:17:27.734Z,98354.94
2022-12-13T17:22:32.721Z,98350.16
2022-12-13T17:27:40.596Z,98345.97
2022-12-13T17:32:46.054Z,98338.22
2022-12-13T17:37:50.967Z,98339.22
2022-12-13T17:42:58.425Z,98341.03
2022-12-13T17:48:03.425Z,98342.00
2022-12-13T17:53:08.702Z,98347.38
2022-12-13T17:58:16.305Z,98342.59
2022-12-13T18:03:21.275Z,98349.38
2022-12-13T18:08:26.217Z,98335.22
2022-12-13T18:13:34.035Z,98343.19
2022-12-13T18:18:39.032Z,98340.16
2022-12-13T18:23:44.750Z,98337.75
2022-12-13T18:29:03.148Z,98336.34
2022-12-13T18:34:08.489Z,98329.34
2022-12-13T18:39:14.756Z,98335.56
2022-12-13T18:44:22.852Z,98327.00
2022-12-13T18:49:28.374Z,98328.13
2022-12-13T18:54:36.772Z,98333.69
2022-12-13T18:59:54.168Z,98322.81
2022-12-13T19:05:00.851Z,98327.34
2022-12-13T19:10:07.678Z,98314.88
2022-12-13T19:15:19.079Z,98326.00
2022-12-13T19:20:25.578Z,98308.69
2022-12-13T19:25:33.218Z,98309.25
2022-12-13T19:30:49.314Z,98318.06
2022-12-13T19:35:55.078Z,98316.50
2022-12-13T19:41:01.407Z,98319.44
2022-12-13T19:46:15.270Z,98312.28
2022-12-13T19:51:23.673Z,98300.78
2022-12-13T19:56:30.070Z,98301.19
2022-12-13T20:01:39.439Z,98301.00
2022-12-13T20:06:51.202Z,98304.97
2022-12-13T20:11:57.658Z,98300.19
2022-12-13T20:17:07.259Z,98298.00
2022-12-13T20:22:13.749Z,98293.84
2022-12-13T20:27:22.342Z,98286.91
2022-12-13T20:32:32.855Z,98298.44
2022-12-13T20:37:38.508Z,98295.25
2022-12-13T20:42:44.724Z,98301.22
2022-12-13T20:47:55.978Z,98293.84
2022-12-13T20:53:01.793Z,98285.91
2022-12-13T20:58:07.723Z,98284.91
2022-12-13T21:03:15.822Z,98272.38
2022-12-13T21:08:34.253Z,98287.31
2022-12-13T21:13:39.824Z,98288.09
2022-12-13T21:18:51.395Z,98278.75
2022-12-13T21:23:58.411Z,98269.97
2022-12-13T21:29:05.296Z,98262.25
2022-12-13T21:34:16.202Z,98263.59
2022-12-13T21:39:24.307Z,98251.09
2022-12-13T21:44:29.409Z,98248.28
2022-12-13T21:49:36.962Z,98233.19
2022-12-13T21:54:41.833Z,98229.41
2022-12-13T21:59:46.839Z,98223.81
2022-12-13T22:05:04.504Z,98220.00
2022-12-13T22:10:11.003Z,98220.41
2022-12-13T22:15:17.797Z,98215.63
2022-12-13T22:20:25.381Z,98210.66
2022-12-13T22:25:30.741Z,98201.47
2022-12-13T22:30:36.747Z,98209.44
2022-12-13T22:35:44.240Z,98211.59
2022-12-13T22:40:54.285Z,98207.81
2022-12-13T22:46:04.619Z,98199.06
2022-12-13T22:51:15.463Z,98196.88
2022-12-13T22:56:21.824Z,98198.03
2022-12-13T23:01:30.468Z,98181.31
2022-12-13T23:06:39.568Z,98180.63
2022-12-13T23:11:57.671Z,98169.28
2022-12-13T23:17:03.355Z,98177.44
2022-12-13T23:22:11.262Z,98167.66
2022-12-13T23:27:17.586Z,98164.84
2022-12-13T23:32:22.643Z,98153.25
2022-12-13T23:37:30.243Z,98149.50
2022-12-13T23:42:35.145Z,98146.41
2022-12-13T23:47:40.186Z,98145.06
2022-12-13T23:52:51.081Z,98140.97
2022-12-13T23:57:55.996Z,98125.03
